Time;durP1;ratioP1;P1;durP2;ratioP2;P2;SDS_P1;SDS_P2;PMS_P1;PMS_P2;Temp;Humidity;BMP_temperature;BMP_pressure;BME280_temperature;BME280_humidity;BME280_pressure;Samples;Min_cycle;Max_cycle;Signal;HPM_P1;HPM_P2
2023/09/25 00:00:31;;;;;;;2.13;2.03;;;19.30;90.00;;;;;;4978967;23;20464;-71
2023/09/25 00:03:03;;;;;;;2.33;1.97;;;19.30;90.00;;;;;;4965960;28;20846;-71
2023/09/25 00:05:30;;;;;;;2.27;2.07;;;19.30;90.00;;;;;;4973205;28;20426;-71
2023/09/25 00:07:57;;;;;;;1.93;1.83;;;19.30;90.00;;;;;;4933855;29;20982;-71
2023/09/25 00:10:25;;;;;;;2.10;1.93;;;19.30;90.00;;;;;;4934078;28;20917;-71
2023/09/25 00:12:54;;;;;;;2.30;2.10;;;19.30;90.00;;;;;;4964371;28;21391;-71
2023/09/25 00:15:22;;;;;;;2.57;2.37;;;19.30;90.00;;;;;;4958305;28;21019;-71
2023/09/25 00:17:50;;;;;;;2.10;1.87;;;19.30;90.10;;;;;;4941196;28;20487;-71
2023/09/25 00:20:24;;;;;;;2.17;2.03;;;19.30;90.10;;;;;;4958417;28;20476;-71
2023/09/25 00:22:55;;;;;;;2.20;2.07;;;19.30;90.10;;;;;;4981462;28;20453;-71
2023/09/25 00:25:23;;;;;;;2.33;2.13;;;19.30;90.10;;;;;;4948375;28;20949;-71
2023/09/25 00:27:50;;;;;;;2.80;2.60;;;19.30;90.10;;;;;;4964805;28;20433;-71
2023/09/25 00:30:16;;;;;;;3.10;2.30;;;19.30;90.10;;;;;;4972474;28;20496;-71
2023/09/25 00:32:45;;;;;;;2.67;2.47;;;19.30;90.10;;;;;;4949007;28;20512;-71
2023/09/25 00:35:11;;;;;;;3.13;2.10;;;19.30;90.20;;;;;;4964468;28;20929;-71
2023/09/25 00:37:40;;;;;;;2.37;2.17;;;19.30;90.10;;;;;;4933326;28;20544;-71
2023/09/25 00:40:14;;;;;;;2.20;2.10;;;19.30;90.10;;;;;;4926631;28;20475;-71
2023/09/25 00:42:41;;;;;;;2.60;2.00;;;19.30;90.10;;;;;;4964870;28;20682;-71
2023/09/25 00:45:09;;;;;;;2.40;2.07;;;19.20;90.10;;;;;;4935734;28;20440;-71
2023/09/25 00:47:36;;;;;;;2.43;2.23;;;19.20;90.00;;;;;;4911282;29;20447;-71
2023/09/25 00:50:04;;;;;;;3.40;2.30;;;19.20;90.10;;;;;;4969517;28;20467;-71
2023/09/25 00:52:33;;;;;;;2.17;1.97;;;19.20;90.10;;;;;;4977128;28;20453;-71
2023/09/25 00:55:02;;;;;;;2.20;2.10;;;19.20;90.10;;;;;;4951799;28;20578;-71
2023/09/25 00:57:32;;;;;;;2.20;2.00;;;19.20;90.10;;;;;;4950417;28;20437;-71
2023/09/25 01:00:04;;;;;;;1.90;1.80;;;19.20;90.10;;;;;;4960101;28;20538;-71
2023/09/25 01:02:32;;;;;;;2.43;2.23;;;19.20;90.20;;;;;;4963490;28;20475;-71
2023/09/25 01:05:02;;;;;;;2.53;2.30;;;19.20;90.20;;;;;;4980817;28;20932;-71
2023/09/25 01:07:37;;;;;;;2.20;2.00;;;19.20;90.20;;;;;;4966825;28;21288;-71
2023/09/25 01:10:12;;;;;;;2.50;2.30;;;19.20;90.20;;;;;;4963740;28;21075;-71
2023/09/25 01:12:40;;;;;;;2.80;2.10;;;19.20;90.20;;;;;;4943124;28;21049;-71
2023/09/25 01:15:07;;;;;;;3.10;2.07;;;19.20;90.20;;;;;;4960006;28;20486;-71
2023/09/25 01:17:34;;;;;;;2.50;2.30;;;19.20;90.20;;;;;;4967100;28;20457;-71
2023/09/25 01:20:12;;;;;;;2.53;2.33;;;19.20;90.20;;;;;;4954735;28;20434;-71
2023/09/25 01:22:46;;;;;;;2.33;2.17;;;19.20;90.20;;;;;;4943590;28;20556;-71
2023/09/25 01:25:15;;;;;;;2.40;2.07;;;19.20;90.30;;;;;;4976552;28;20442;-71
2023/09/25 01:27:49;;;;;;;2.40;2.20;;;19.10;90.20;;;;;;4984557;28;21110;-71
2023/09/25 01:30:17;;;;;;;2.30;2.10;;;19.20;90.30;;;;;;4977085;28;20461;-71
2023/09/25 01:32:45;;;;;;;2.80;2.53;;;19.20;90.20;;;;;;4967655;28;20461;-72
2023/09/25 01:35:16;;;;;;;2.80;2.40;;;19.10;90.30;;;;;;4968016;28;20797;-71
2023/09/25 01:37:46;;;;;;;2.40;2.23;;;19.10;90.20;;;;;;4967596;28;21079;-71
2023/09/25 01:40:17;;;;;;;2.37;2.20;;;19.10;90.20;;;;;;4960851;28;20548;-71
2023/09/25 01:42:51;;;;;;;2.23;2.13;;;19.10;90.20;;;;;;4961347;28;20540;-71
2023/09/25 01:45:20;;;;;;;2.43;2.17;;;19.10;90.20;;;;;;4936564;28;20500;-71
2023/09/25 01:47:53;;;;;;;2.60;2.40;;;19.10;90.20;;;;;;4962692;28;20776;-71
2023/09/25 01:50:27;;;;;;;2.00;1.90;;;19.10;90.30;;;;;;4960723;28;20530;-71
2023/09/25 01:53:00;;;;;;;2.50;2.30;;;19.10;90.30;;;;;;4960289;28;20862;-71
2023/09/25 01:55:36;;;;;;;2.13;2.03;;;19.00;90.30;;;;;;4958714;28;20437;-71
2023/09/25 01:58:04;;;;;;;2.37;2.17;;;19.10;90.40;;;;;;4965881;28;20417;-71
2023/09/25 02:00:33;;;;;;;2.13;2.03;;;19.10;90.30;;;;;;4927378;28;20438;-71
2023/09/25 02:02:59;;;;;;;2.50;2.33;;;19.00;90.30;;;;;;4959225;28;20462;-71
2023/09/25 02:05:29;;;;;;;2.50;2.20;;;19.00;90.30;;;;;;4993359;28;20425;-71
2023/09/25 02:07:55;;;;;;;2.50;2.30;;;19.00;90.30;;;;;;4963553;28;20481;-71
2023/09/25 02:10:23;;;;;;;2.27;2.17;;;19.00;90.30;;;;;;4996698;28;20467;-71
2023/09/25 02:12:50;;;;;;;6.60;2.00;;;19.10;90.40;;;;;;4972021;28;21356;-71
2023/09/25 02:15:19;;;;;;;2.47;2.10;;;19.00;90.40;;;;;;4958325;28;21297;-71
2023/09/25 02:17:45;;;;;;;2.50;2.30;;;19.00;90.30;;;;;;4973528;28;20441;-71
2023/09/25 02:20:17;;;;;;;2.60;2.40;;;19.00;90.30;;;;;;4962204;28;20430;-71
2023/09/25 02:22:51;;;;;;;2.73;2.40;;;19.00;90.40;;;;;;4986972;28;20962;-71
2023/09/25 02:25:18;;;;;;;2.63;2.43;;;19.00;90.50;;;;;;4977737;28;20445;-71
2023/09/25 02:27:46;;;;;;;2.50;2.30;;;19.00;90.40;;;;;;4995189;28;20453;-71
2023/09/25 02:30:13;;;;;;;2.47;2.27;;;19.00;90.30;;;;;;4952333;28;20475;-71
2023/09/25 02:32:43;;;;;;;2.63;2.43;;;18.90;90.30;;;;;;4967533;28;20562;-71
2023/09/25 02:35:15;;;;;;;2.47;2.27;;;18.90;90.40;;;;;;4992668;28;21343;-71
2023/09/25 02:37:44;;;;;;;2.17;2.07;;;19.00;90.40;;;;;;4983357;28;20486;-71
2023/09/25 02:40:14;;;;;;;2.87;2.67;;;18.90;90.30;;;;;;4995644;28;20520;-71
2023/09/25 02:42:46;;;;;;;2.40;2.20;;;18.90;90.40;;;;;;4978037;28;20495;-71
2023/09/25 02:45:13;;;;;;;4.23;2.30;;;18.90;90.40;;;;;;4957995;28;21173;-71
2023/09/25 02:47:39;;;;;;;2.30;2.20;;;18.90;90.40;;;;;;4994722;28;20978;-71
2023/09/25 02:50:08;;;;;;;2.60;2.30;;;18.90;90.40;;;;;;4991434;28;20483;-71
2023/09/25 02:52:35;;;;;;;2.83;2.60;;;18.90;90.40;;;;;;4965649;28;21536;-71
2023/09/25 02:55:03;;;;;;;2.43;2.23;;;18.90;90.40;;;;;;4993897;28;20444;-71
2023/09/25 02:57:31;;;;;;;2.50;2.20;;;18.90;90.40;;;;;;4965877;28;21120;-71
2023/09/25 02:59:59;;;;;;;2.43;2.33;;;18.90;90.40;;;;;;4951700;28;20687;-71
2023/09/25 03:02:28;;;;;;;2.47;2.27;;;18.90;90.30;;;;;;4979635;28;20499;-71
2023/09/25 03:04:56;;;;;;;4.63;2.43;;;18.90;90.40;;;;;;4958625;28;21063;-71
2023/09/25 03:07:26;;;;;;;2.90;2.70;;;18.80;90.30;;;;;;4977424;28;20445;-71
2023/09/25 03:09:52;;;;;;;2.60;2.43;;;18.90;90.40;;;;;;4975673;28;20510;-71
2023/09/25 03:12:19;;;;;;;2.47;2.37;;;18.90;90.40;;;;;;4972772;28;20482;-70
2023/09/25 03:14:50;;;;;;;3.10;2.53;;;18.90;90.40;;;;;;4984044;28;20437;-71
2023/09/25 03:17:19;;;;;;;2.60;2.40;;;18.80;90.30;;;;;;4974201;28;21252;-71
2023/09/25 03:19:45;;;;;;;2.60;2.40;;;18.80;90.40;;;;;;4975891;28;21224;-71
2023/09/25 03:22:13;;;;;;;2.60;2.43;;;18.80;90.40;;;;;;4981480;28;20444;-71
2023/09/25 03:24:42;;;;;;;2.40;2.20;;;18.80;90.30;;;;;;4971022;28;20492;-71
2023/09/25 03:27:09;;;;;;;2.63;2.43;;;18.80;90.30;;;;;;4938536;28;20455;-71
2023/09/25 03:29:35;;;;;;;2.57;2.37;;;18.80;90.30;;;;;;4965227;28;20431;-71
2023/09/25 03:32:02;;;;;;;2.43;2.23;;;18.80;90.30;;;;;;4954266;28;20547;-71
2023/09/25 03:34:29;;;;;;;2.60;2.40;;;18.70;90.30;;;;;;4965712;28;20425;-71
2023/09/25 03:36:55;;;;;;;4.10;3.80;;;18.80;90.40;;;;;;4977189;28;20451;-71
2023/09/25 03:39:21;;;;;;;3.00;2.70;;;18.80;90.40;;;;;;4957890;28;20441;-71
2023/09/25 03:41:50;;;;;;;2.37;2.27;;;18.70;90.30;;;;;;4999188;28;21064;-71
2023/09/25 03:44:16;;;;;;;2.83;2.67;;;18.80;90.40;;;;;;4966188;28;20444;-71
2023/09/25 03:46:42;;;;;;;2.83;2.63;;;18.70;90.30;;;;;;4955111;28;20882;-71
2023/09/25 03:49:09;;;;;;;3.33;2.53;;;18.70;90.30;;;;;;4962484;28;20459;-71
2023/09/25 03:51:35;;;;;;;3.13;2.90;;;18.80;90.40;;;;;;4949114;28;20479;-71
2023/09/25 03:54:04;;;;;;;2.73;2.60;;;18.70;90.40;;;;;;4957716;28;21455;-71
2023/09/25 03:56:35;;;;;;;2.50;2.40;;;18.70;90.30;;;;;;4976974;28;21111;-71
2023/09/25 03:59:03;;;;;;;2.70;2.60;;;18.70;90.30;;;;;;4958727;28;20437;-71
2023/09/25 04:01:30;;;;;;;2.93;2.73;;;18.70;90.30;;;;;;4946247;28;20455;-71
2023/09/25 04:04:00;;;;;;;3.10;2.90;;;18.70;90.30;;;;;;4990628;28;20832;-71
2023/09/25 04:06:29;;;;;;;2.73;2.57;;;18.70;90.30;;;;;;4973410;28;20514;-71
2023/09/25 04:08:55;;;;;;;3.13;2.93;;;18.60;90.30;;;;;;4980451;28;20433;-71
2023/09/25 04:11:21;;;;;;;2.97;2.70;;;18.70;90.30;;;;;;4940575;28;20507;-71
2023/09/25 04:13:47;;;;;;;3.80;3.10;;;18.60;90.30;;;;;;4992823;28;20458;-71
2023/09/25 04:16:14;;;;;;;3.07;2.87;;;18.60;90.30;;;;;;4986188;28;20424;-71
2023/09/25 04:18:42;;;;;;;3.20;2.90;;;18.60;90.30;;;;;;4952771;28;20444;-71
2023/09/25 04:21:17;;;;;;;2.97;2.77;;;18.60;90.20;;;;;;4964740;28;20425;-71
2023/09/25 04:23:44;;;;;;;4.43;3.00;;;18.60;90.20;;;;;;4974682;28;20976;-71
2023/09/25 04:26:13;;;;;;;2.87;2.70;;;18.60;90.30;;;;;;4958305;28;20443;-71
2023/09/25 04:28:44;;;;;;;2.90;2.70;;;18.60;90.30;;;;;;4985457;28;20432;-71
2023/09/25 04:31:12;;;;;;;2.60;2.50;;;18.50;90.20;;;;;;4973032;28;20479;-71
2023/09/25 04:33:41;;;;;;;3.07;2.97;;;18.60;90.30;;;;;;5003438;28;20483;-71
2023/09/25 04:36:10;;;;;;;3.17;2.97;;;18.50;90.20;;;;;;4993122;28;20464;-70
2023/09/25 04:38:37;;;;;;;2.70;2.60;;;18.60;90.30;;;;;;4969942;28;20797;-74
2023/09/25 04:41:06;;;;;;;3.20;3.00;;;18.50;90.20;;;;;;4963310;28;20477;-74
2023/09/25 04:43:32;;;;;;;2.47;2.37;;;18.50;90.20;;;;;;4970821;28;20521;-74
2023/09/25 04:46:00;;;;;;;3.10;2.80;;;18.50;90.20;;;;;;4987520;28;20947;-72
2023/09/25 04:48:29;;;;;;;3.33;2.50;;;18.60;90.20;;;;;;4961336;28;20963;-72
2023/09/25 04:50:57;;;;;;;3.17;2.97;;;18.50;90.10;;;;;;4984382;28;20463;-72
2023/09/25 04:53:23;;;;;;;2.80;2.60;;;18.50;90.10;;;;;;4969104;28;20446;-71
2023/09/25 04:55:49;;;;;;;2.57;2.43;;;18.50;90.10;;;;;;4965264;28;20446;-72
2023/09/25 04:58:15;;;;;;;3.30;2.77;;;18.50;90.10;;;;;;4944525;28;20916;-72
2023/09/25 05:00:48;;;;;;;2.70;2.47;;;18.50;90.10;;;;;;4975740;28;20518;-72
2023/09/25 05:03:14;;;;;;;2.80;2.60;;;18.50;90.10;;;;;;4982586;28;20531;-72
2023/09/25 05:05:46;;;;;;;2.53;2.33;;;18.50;90.00;;;;;;4995188;28;20596;-72
2023/09/25 05:08:13;;;;;;;2.60;2.50;;;18.50;90.00;;;;;;4958154;28;20451;-72
2023/09/25 05:10:39;;;;;;;2.43;2.23;;;18.50;90.10;;;;;;4973539;28;20469;-71
2023/09/25 05:13:09;;;;;;;3.07;2.50;;;18.50;90.00;;;;;;4945740;28;20461;-72
2023/09/25 05:15:37;;;;;;;3.03;2.83;;;18.50;90.10;;;;;;4967653;28;20444;-72
2023/09/25 05:18:04;;;;;;;2.27;2.17;;;18.40;90.00;;;;;;5000462;28;20435;-72
2023/09/25 05:20:32;;;;;;;2.70;2.50;;;18.40;90.00;;;;;;4958143;28;20429;-72
2023/09/25 05:22:59;;;;;;;2.43;2.33;;;18.40;90.00;;;;;;4954613;28;20440;-71
2023/09/25 05:25:26;;;;;;;2.80;2.60;;;18.40;90.00;;;;;;4968791;28;20661;-72
2023/09/25 05:27:56;;;;;;;3.23;2.93;;;18.40;90.00;;;;;;4944396;28;21368;-72
2023/09/25 05:30:27;;;;;;;2.57;2.33;;;18.40;89.90;;;;;;4964954;28;21373;-71
2023/09/25 05:32:55;;;;;;;2.77;2.57;;;18.40;90.00;;;;;;4955518;28;20479;-71
2023/09/25 05:35:21;;;;;;;2.53;2.33;;;18.40;90.00;;;;;;4981405;28;20433;-71
2023/09/25 05:37:48;;;;;;;2.53;2.33;;;18.40;89.90;;;;;;4943232;28;20456;-71
2023/09/25 05:40:15;;;;;;;2.30;2.10;;;18.40;89.90;;;;;;4979804;28;20455;-71
2023/09/25 05:42:47;;;;;;;3.03;2.67;;;18.40;90.00;;;;;;4944174;28;21237;-71
2023/09/25 05:45:15;;;;;;;2.70;2.50;;;18.40;89.80;;;;;;4962772;28;20467;-71
2023/09/25 05:47:44;;;;;;;3.17;2.60;;;18.30;89.70;;;;;;4962889;28;20425;-71
2023/09/25 05:50:11;;;;;;;2.70;2.50;;;18.40;89.70;;;;;;4962605;28;20465;-72
2023/09/25 05:52:43;;;;;;;2.90;2.70;;;18.40;89.80;;;;;;4946983;28;20455;-71
2023/09/25 05:55:11;;;;;;;5.47;2.63;;;18.30;89.70;;;;;;4981503;28;20488;-72
2023/09/25 05:57:41;;;;;;;3.07;2.87;;;18.30;89.80;;;;;;4969037;28;20433;-71
2023/09/25 06:00:16;;;;;;;2.90;2.63;;;18.30;89.70;;;;;;4982684;28;20534;-72
2023/09/25 06:02:50;;;;;;;2.77;2.57;;;18.30;89.60;;;;;;4963937;28;20452;-71
2023/09/25 06:05:24;;;;;;;3.20;2.77;;;18.30;89.70;;;;;;4980026;28;21260;-71
2023/09/25 06:07:54;;;;;;;2.63;2.43;;;18.30;89.50;;;;;;4968941;28;21066;-71
2023/09/25 06:10:23;;;;;;;2.77;2.57;;;18.30;89.50;;;;;;4948174;28;20484;-71
2023/09/25 06:12:50;;;;;;;2.70;2.50;;;18.30;89.60;;;;;;4976425;28;21050;-71
2023/09/25 06:15:16;;;;;;;2.90;2.60;;;18.30;89.60;;;;;;4951265;28;21037;-72
2023/09/25 06:17:45;;;;;;;4.20;2.70;;;18.30;89.60;;;;;;4978831;28;20436;-71
2023/09/25 06:20:15;;;;;;;3.10;2.70;;;18.30;89.60;;;;;;4949954;28;20451;-70
2023/09/25 06:22:43;;;;;;;2.70;2.50;;;18.30;89.60;;;;;;4976812;28;20460;-70
2023/09/25 06:25:16;;;;;;;2.23;2.13;;;18.30;89.60;;;;;;4951558;28;20527;-72
2023/09/25 06:27:50;;;;;;;2.43;2.23;;;18.30;89.50;;;;;;4980739;28;20642;-70
2023/09/25 06:30:19;;;;;;;2.77;2.57;;;18.30;89.40;;;;;;4962377;28;21034;-71
2023/09/25 06:32:45;;;;;;;2.63;2.43;;;18.30;89.30;;;;;;4970946;28;20511;-72
2023/09/25 06:35:12;;;;;;;2.50;2.30;;;18.30;89.30;;;;;;4980202;28;20789;-71
2023/09/25 06:37:38;;;;;;;2.93;2.73;;;18.20;89.10;;;;;;4969399;28;20431;-72
2023/09/25 06:40:09;;;;;;;2.80;2.60;;;18.20;89.50;;;;;;4977372;28;21040;-71
2023/09/25 06:42:37;;;;;;;2.40;2.20;;;18.30;89.50;;;;;;4970279;28;20556;-71
2023/09/25 06:45:07;;;;;;;2.90;2.70;;;18.20;89.40;;;;;;4956997;28;21512;-70
2023/09/25 06:47:36;;;;;;;2.63;2.43;;;18.30;89.60;;;;;;4932352;28;20432;-71
2023/09/25 06:50:03;;;;;;;2.53;2.40;;;18.20;89.50;;;;;;4980523;28;21034;-72
2023/09/25 06:52:29;;;;;;;2.77;2.57;;;18.20;89.30;;;;;;4950752;28;21155;-72
2023/09/25 06:54:58;;;;;;;3.33;2.70;;;18.30;89.50;;;;;;4966619;28;20448;-72
2023/09/25 06:57:25;;;;;;;3.10;2.87;;;18.20;89.40;;;;;;4965531;28;20540;-72
2023/09/25 06:59:51;;;;;;;2.47;2.27;;;18.20;89.30;;;;;;4956916;28;20452;-71
2023/09/25 07:02:17;;;;;;;4.40;2.70;;;18.30;89.20;;;;;;4963585;28;20457;-71
2023/09/25 07:04:44;;;;;;;2.47;2.30;;;18.20;89.20;;;;;;4984631;28;21192;-71
2023/09/25 07:07:12;;;;;;;2.70;2.50;;;18.20;89.10;;;;;;4962589;28;21006;-72
2023/09/25 07:09:39;;;;;;;3.00;2.70;;;18.30;89.20;;;;;;4984716;28;21018;-71
2023/09/25 07:12:08;;;;;;;2.10;2.00;;;18.20;89.20;;;;;;4982659;28;20646;-71
2023/09/25 07:14:36;;;;;;;2.73;2.37;;;18.30;89.30;;;;;;4957498;28;20440;-70
2023/09/25 07:17:11;;;;;;;2.47;2.27;;;18.20;89.10;;;;;;4961986;28;21081;-71
2023/09/25 07:19:38;;;;;;;2.17;2.07;;;18.20;90.00;;;;;;4974071;28;20456;-72
2023/09/25 07:22:04;;;;;;;3.37;2.20;;;18.20;89.20;;;;;;4964897;28;20452;-72
2023/09/25 07:24:35;;;;;;;2.53;2.33;;;18.20;89.10;;;;;;4946301;28;20928;-71
2023/09/25 07:27:01;;;;;;;2.73;2.53;;;18.20;89.10;;;;;;4987536;28;20539;-71
2023/09/25 07:29:30;;;;;;;2.63;2.43;;;18.20;89.10;;;;;;4927697;28;20656;-72
2023/09/25 07:31:56;;;;;;;2.40;2.20;;;18.20;89.90;;;;;;4946194;28;20503;-71
2023/09/25 07:34:23;;;;;;;8.03;2.40;;;18.20;89.30;;;;;;4980145;28;21088;-71
2023/09/25 07:36:51;;;;;;;3.60;2.90;;;18.20;89.30;;;;;;4938232;28;20465;-71
2023/09/25 07:39:22;;;;;;;2.43;2.23;;;18.20;89.40;;;;;;4980384;28;20433;-72
2023/09/25 07:41:50;;;;;;;2.20;2.10;;;18.20;89.40;;;;;;4980211;28;20443;-71
2023/09/25 07:44:16;;;;;;;2.50;2.30;;;18.30;89.50;;;;;;4988009;28;20772;-72
2023/09/25 07:46:47;;;;;;;2.40;2.20;;;18.20;89.40;;;;;;4946177;28;20477;-71
2023/09/25 07:49:18;;;;;;;2.40;2.23;;;18.20;89.50;;;;;;4960967;28;20441;-71
2023/09/25 07:51:48;;;;;;;2.87;2.67;;;18.20;89.50;;;;;;4938113;28;21230;-70
2023/09/25 07:54:15;;;;;;;3.00;2.70;;;18.20;89.60;;;;;;4979516;28;21261;-72
2023/09/25 07:56:41;;;;;;;2.73;2.53;;;18.20;89.90;;;;;;4984916;28;20523;-71
2023/09/25 07:59:08;;;;;;;2.80;2.60;;;18.20;89.40;;;;;;4966039;28;21215;-70
2023/09/25 08:01:39;;;;;;;2.67;2.47;;;18.30;89.60;;;;;;4981096;28;20507;-72
2023/09/25 08:04:07;;;;;;;2.63;2.43;;;18.20;89.60;;;;;;4966696;28;20440;-72
2023/09/25 08:06:33;;;;;;;2.57;2.37;;;18.20;89.80;;;;;;4978669;28;20440;-72
2023/09/25 08:08:59;;;;;;;2.60;2.40;;;18.20;89.60;;;;;;4946203;28;20437;-72
2023/09/25 08:11:26;;;;;;;2.70;2.50;;;18.20;89.60;;;;;;5040269;23;20864;-70
2023/09/25 08:13:54;;;;;;;2.40;2.20;;;18.30;89.70;;;;;;4928963;28;21192;-70
2023/09/25 08:16:23;;;;;;;2.33;1.90;;;18.30;89.60;;;;;;4927507;29;20638;-69
2023/09/25 08:18:49;;;;;;;2.50;2.30;;;18.30;89.60;;;;;;4933025;28;20438;-70
2023/09/25 08:21:16;;;;;;;2.80;2.60;;;18.30;89.70;;;;;;4917104;28;20545;-70
2023/09/25 08:23:42;;;;;;;2.60;2.40;;;18.30;89.60;;;;;;4946880;28;20526;-69
2023/09/25 08:26:08;;;;;;;2.70;2.50;;;18.30;89.60;;;;;;4930928;29;21207;-70
2023/09/25 08:28:36;;;;;;;2.53;2.33;;;18.30;89.70;;;;;;4922313;29;21217;-69
2023/09/25 08:31:02;;;;;;;2.93;2.60;;;18.30;89.70;;;;;;4937945;29;20478;-70
2023/09/25 08:33:28;;;;;;;5.10;2.77;;;18.30;89.60;;;;;;4926697;29;20468;-70
2023/09/25 08:35:54;;;;;;;3.30;3.10;;;18.30;89.60;;;;;;4917355;28;20521;-70
2023/09/25 08:38:20;;;;;;;2.83;2.53;;;18.30;89.60;;;;;;4907253;28;20558;-69
2023/09/25 08:40:52;;;;;;;2.90;2.60;;;18.30;89.50;;;;;;4962668;28;21023;-70
2023/09/25 08:43:22;;;;;;;2.93;2.70;;;18.30;89.60;;;;;;4931643;29;20469;-69
2023/09/25 08:45:51;;;;;;;3.93;3.07;;;18.30;89.60;;;;;;4935959;29;20455;-70
2023/09/25 08:48:17;;;;;;;2.87;2.67;;;18.30;89.80;;;;;;4935961;28;20421;-70
2023/09/25 08:50:44;;;;;;;2.70;2.50;;;18.20;89.80;;;;;;4911591;29;20481;-70
2023/09/25 08:53:10;;;;;;;2.70;2.50;;;18.30;89.90;;;;;;4960919;28;20972;-69
2023/09/25 08:55:36;;;;;;;4.43;2.80;;;18.30;89.70;;;;;;4919651;29;20961;-70
2023/09/25 08:58:07;;;;;;;3.17;2.97;;;18.30;89.80;;;;;;4935093;29;20695;-70
2023/09/25 09:00:34;;;;;;;3.00;2.80;;;18.30;89.70;;;;;;4946725;28;20430;-70
2023/09/25 09:03:00;;;;;;;3.00;2.80;;;18.40;89.70;;;;;;4927521;29;21088;-70
2023/09/25 09:05:28;;;;;;;3.00;2.80;;;18.40;89.60;;;;;;4912003;29;20431;-70
2023/09/25 09:08:02;;;;;;;2.67;2.47;;;18.40;89.60;;;;;;4945769;29;20431;-70
2023/09/25 09:10:33;;;;;;;2.60;2.40;;;18.40;89.60;;;;;;4947490;28;20528;-70
2023/09/25 09:13:01;;;;;;;2.90;2.70;;;18.50;89.70;;;;;;4947568;28;20957;-70
2023/09/25 09:15:29;;;;;;;2.70;2.50;;;18.50;89.70;;;;;;4937609;29;20865;-69
2023/09/25 09:18:02;;;;;;;2.80;2.60;;;18.50;89.70;;;;;;4942872;28;20445;-69
2023/09/25 09:20:36;;;;;;;3.33;3.10;;;18.50;89.60;;;;;;4919669;29;20426;-69
2023/09/25 09:23:03;;;;;;;2.90;2.70;;;18.50;89.50;;;;;;4959047;28;20447;-69
2023/09/25 09:25:31;;;;;;;3.37;3.00;;;18.50;89.40;;;;;;4963963;28;20540;-68
2023/09/25 09:28:03;;;;;;;2.70;2.50;;;18.60;89.60;;;;;;4928691;29;21002;-68
2023/09/25 09:30:30;;;;;;;3.10;2.80;;;18.60;89.50;;;;;;4915025;28;20477;-69
2023/09/25 09:32:58;;;;;;;2.70;2.50;;;18.60;89.60;;;;;;4955895;28;20889;-69
2023/09/25 09:35:27;;;;;;;2.57;2.47;;;18.60;89.60;;;;;;4943859;28;20553;-69
2023/09/25 09:38:02;;;;;;;4.73;3.07;;;18.60;89.50;;;;;;4943706;29;20975;-69
2023/09/25 09:40:33;;;;;;;3.20;2.77;;;18.70;89.70;;;;;;4944121;28;20528;-69
2023/09/25 09:43:06;;;;;;;4.03;2.90;;;18.70;89.40;;;;;;4951243;28;20455;-69
2023/09/25 09:45:34;;;;;;;3.07;2.87;;;18.70;89.40;;;;;;4958732;28;20519;-69
2023/09/25 09:48:01;;;;;;;2.50;2.30;;;18.70;89.30;;;;;;4948411;28;20477;-69
2023/09/25 09:50:34;;;;;;;3.07;2.87;;;18.80;89.50;;;;;;4935129;29;21007;-69
2023/09/25 09:53:01;;;;;;;3.43;3.13;;;18.80;89.50;;;;;;4918428;28;20555;-69
2023/09/25 09:55:31;;;;;;;2.80;2.47;;;18.80;89.40;;;;;;4942070;29;20805;-69
2023/09/25 09:57:57;;;;;;;3.00;2.80;;;18.80;89.40;;;;;;4939992;29;21144;-68
2023/09/25 10:00:26;;;;;;;2.80;2.60;;;18.80;89.20;;;;;;4947314;28;20442;-68
2023/09/25 10:02:55;;;;;;;4.33;2.90;;;18.80;89.10;;;;;;4961383;28;20458;-68
2023/09/25 10:05:21;;;;;;;3.23;2.93;;;18.90;89.20;;;;;;4950868;28;20466;-68
2023/09/25 10:08:09;;;;;;;3.07;2.77;;;18.70;88.80;;;;;;4950397;28;20445;-69
2023/09/25 10:10:48;;;;;;;2.97;2.60;;;18.90;89.10;;;;;;4954810;28;20478;-68
2023/09/25 10:13:26;;;;;;;3.40;3.10;;;18.90;89.10;;;;;;4961342;28;20448;-68
2023/09/25 10:15:58;;;;;;;2.63;2.43;;;18.90;89.00;;;;;;4961494;28;20437;-68
2023/09/25 10:18:28;;;;;;;2.87;2.60;;;19.00;89.20;;;;;;4945747;28;20425;-69
2023/09/25 10:21:09;;;;;;;2.60;2.40;;;19.00;89.20;;;;;;4953258;28;20426;-68
2023/09/25 10:23:46;;;;;;;2.93;2.73;;;19.00;89.20;;;;;;4956350;28;20470;-68
2023/09/25 10:26:24;;;;;;;3.23;2.93;;;19.10;89.40;;;;;;4959837;28;20529;-68
2023/09/25 10:29:15;;;;;;;3.50;3.20;;;19.10;89.30;;;;;;4934729;28;20434;-68
2023/09/25 10:31:47;;;;;;;3.03;2.73;;;19.10;89.30;;;;;;4914065;29;20490;-68
2023/09/25 10:34:16;;;;;;;3.20;2.90;;;19.10;89.40;;;;;;4933348;28;20454;-68
2023/09/25 10:36:44;;;;;;;3.50;3.20;;;19.10;89.40;;;;;;4937431;29;20509;-68
2023/09/25 10:39:14;;;;;;;4.63;2.50;;;19.20;89.50;;;;;;4939633;28;20487;-68
2023/09/25 10:41:47;;;;;;;2.90;2.70;;;19.20;89.40;;;;;;4955576;28;20578;-68
2023/09/25 10:44:16;;;;;;;3.50;3.20;;;19.20;89.30;;;;;;4940948;29;20481;-68
2023/09/25 10:46:43;;;;;;;3.17;2.97;;;19.20;89.40;;;;;;4941110;29;20454;-68
2023/09/25 10:49:11;;;;;;;3.63;3.33;;;19.30;89.50;;;;;;4949831;28;20453;-68
2023/09/25 10:51:38;;;;;;;3.00;2.80;;;19.30;89.50;;;;;;4926160;29;20513;-68
2023/09/25 10:54:04;;;;;;;3.40;3.10;;;19.30;89.40;;;;;;4941980;28;21252;-68
2023/09/25 10:56:30;;;;;;;3.17;2.90;;;19.40;89.30;;;;;;4942065;28;20463;-68
2023/09/25 10:58:56;;;;;;;3.10;2.80;;;19.30;89.30;;;;;;4942529;28;20434;-68
2023/09/25 11:01:32;;;;;;;2.87;2.60;;;19.40;89.20;;;;;;4941796;28;20490;-68
2023/09/25 11:03:59;;;;;;;3.83;3.60;;;19.40;89.20;;;;;;4940423;29;20502;-68
2023/09/25 11:06:30;;;;;;;4.10;3.70;;;19.40;89.20;;;;;;4940680;29;20531;-69
2023/09/25 11:09:05;;;;;;;3.73;3.30;;;19.40;89.20;;;;;;4949525;28;20471;-68
2023/09/25 11:11:31;;;;;;;2.73;2.50;;;19.50;89.20;;;;;;4946345;28;20613;-68
2023/09/25 11:13:58;;;;;;;2.60;2.40;;;19.50;89.20;;;;;;4943730;28;21277;-68
2023/09/25 11:16:29;;;;;;;3.60;2.80;;;19.60;89.20;;;;;;4916354;28;20481;-68
2023/09/25 11:19:15;;;;;;;2.83;2.63;;;19.60;89.10;;;;;;4940448;29;21015;-68
2023/09/25 11:21:46;;;;;;;3.50;3.30;;;19.60;89.00;;;;;;4934322;29;20535;-68
2023/09/25 11:24:15;;;;;;;3.97;3.17;;;19.60;89.20;;;;;;4958695;28;20521;-68
2023/09/25 11:26:44;;;;;;;3.03;2.77;;;19.60;89.10;;;;;;4958911;23;20518;-67
2023/09/25 11:29:11;;;;;;;2.60;2.40;;;19.70;90.00;;;;;;4964618;28;20812;-67
2023/09/25 11:31:38;;;;;;;3.20;3.00;;;19.70;89.10;;;;;;4978262;28;20528;-67
2023/09/25 11:34:09;;;;;;;3.30;3.00;;;19.70;89.10;;;;;;4978585;28;20597;-67
2023/09/25 11:36:45;;;;;;;2.63;2.43;;;19.80;89.30;;;;;;4958049;28;20530;-67
2023/09/25 11:39:16;;;;;;;3.77;2.60;;;19.80;89.60;;;;;;4962457;28;20443;-67
2023/09/25 11:41:45;;;;;;;2.53;2.33;;;19.80;89.50;;;;;;4961937;28;20486;-66
2023/09/25 11:44:12;;;;;;;2.97;2.77;;;19.80;89.40;;;;;;4974316;28;20463;-67
2023/09/25 11:46:40;;;;;;;2.87;2.67;;;19.80;89.50;;;;;;4957138;28;20987;-68
2023/09/25 11:49:08;;;;;;;3.43;3.20;;;19.80;89.40;;;;;;4979630;28;20550;-67
2023/09/25 11:51:35;;;;;;;5.60;3.00;;;19.80;89.30;;;;;;4962381;28;20566;-68
2023/09/25 11:54:04;;;;;;;4.33;3.23;;;19.90;90.00;;;;;;4980540;28;20442;-68
2023/09/25 11:56:30;;;;;;;2.90;2.70;;;19.90;89.60;;;;;;4975975;28;20477;-67
2023/09/25 11:59:01;;;;;;;2.63;2.43;;;19.90;89.60;;;;;;4981399;28;20423;-68
2023/09/25 12:01:30;;;;;;;3.40;3.20;;;19.90;89.60;;;;;;4979842;28;20434;-67
2023/09/25 12:03:56;;;;;;;3.30;3.00;;;20.00;89.70;;;;;;4981111;28;20586;-67
2023/09/25 12:06:24;;;;;;;3.17;2.93;;;20.00;89.70;;;;;;4981232;28;20422;-68
2023/09/25 12:08:50;;;;;;;3.90;3.70;;;20.00;89.80;;;;;;4980128;28;20430;-67
2023/09/25 12:11:18;;;;;;;3.20;3.00;;;20.00;90.20;;;;;;4981343;28;20870;-68
2023/09/25 12:13:47;;;;;;;3.07;2.87;;;20.00;89.80;;;;;;4963587;28;20460;-67
2023/09/25 12:16:15;;;;;;;2.87;2.67;;;19.90;89.80;;;;;;4981134;28;20447;-67
2023/09/25 12:18:40;;;;;;;3.23;2.93;;;20.30;90.00;;;;;;4983411;28;20422;-67
2023/09/25 12:21:08;;;;;;;2.90;2.70;;;20.10;89.90;;;;;;4979792;28;20418;-67
2023/09/25 12:23:34;;;;;;;2.73;2.57;;;20.10;89.90;;;;;;4981284;28;20461;-67
2023/09/25 12:26:01;;;;;;;3.37;3.17;;;20.10;89.70;;;;;;4963248;28;20458;-68
2023/09/25 12:28:26;;;;;;;3.00;2.80;;;20.20;89.90;;;;;;4963849;28;20960;-68
2023/09/25 12:30:53;;;;;;;3.50;3.20;;;20.20;89.90;;;;;;4981011;28;20462;-68
2023/09/25 12:33:21;;;;;;;2.90;2.70;;;20.20;89.90;;;;;;4963898;28;20866;-67
2023/09/25 12:35:47;;;;;;;3.30;3.10;;;20.20;89.80;;;;;;4963502;28;20507;-67
2023/09/25 12:38:13;;;;;;;3.20;2.87;;;20.20;89.80;;;;;;4980578;28;20787;-68
2023/09/25 12:40:40;;;;;;;3.10;2.90;;;20.30;89.80;;;;;;4979148;28;20424;-67
2023/09/25 12:43:06;;;;;;;3.00;2.80;;;20.30;89.90;;;;;;4979534;28;20877;-67
2023/09/25 12:45:31;;;;;;;3.40;3.10;;;20.30;90.20;;;;;;4963600;28;20461;-67
2023/09/25 12:47:58;;;;;;;3.07;2.80;;;20.30;89.60;;;;;;4983422;28;20470;-67
2023/09/25 12:50:26;;;;;;;2.80;2.60;;;20.40;89.90;;;;;;4982855;28;20487;-67
2023/09/25 12:52:53;;;;;;;3.80;3.50;;;20.40;89.80;;;;;;4966840;28;20457;-67
2023/09/25 12:55:21;;;;;;;3.63;3.30;;;20.40;89.80;;;;;;4983518;28;20431;-67